createdAt,value
2023-04-20T15:15:03.628Z,510.2857
2023-04-20T15:16:06.257Z,510.6923
2023-04-20T15:17:09.074Z,511.3077
2023-04-20T15:18:11.491Z,510.6923
2023-04-20T15:19:14.122Z,507.0769
2023-04-20T15:20:16.731Z,506.8462
2023-04-20T15:21:19.362Z,508.7692
2023-04-20T15:22:21.958Z,509.3077
2023-04-20T15:23:24.606Z,508.4615
2023-04-20T15:24:27.201Z,509.6154
2023-04-20T15:25:29.856Z,507.5385
2023-04-20T15:26:32.447Z,508.4615
2023-04-20T15:27:35.101Z,508.0000
2023-04-20T15:28:37.702Z,511.6923
2023-04-20T15:29:40.346Z,515.0000
2023-04-20T15:30:42.940Z,508.9231
2023-04-20T15:31:45.654Z,502.6154
2023-04-20T15:32:48.862Z,507.1538
2023-04-20T15:33:50.824Z,513.6923
2023-04-20T15:34:53.440Z,505.3846
2023-04-20T15:35:56.059Z,507.5385
2023-04-20T15:36:58.653Z,505.6154
2023-04-20T15:38:01.304Z,507.2308
2023-04-20T15:39:03.911Z,500.1538
2023-04-20T15:40:06.550Z,506.6154
2023-04-20T15:41:09.528Z,508.0769
2023-04-20T15:42:11.773Z,506.4615
2023-04-20T15:43:14.371Z,503.4615
2023-04-20T15:44:17.412Z,503.3077
2023-04-20T15:45:19.605Z,504.0000
2023-04-20T15:46:22.356Z,503.8462
2023-04-20T15:47:24.901Z,509.6154
2023-04-20T15:48:27.558Z,504.3077
2023-04-20T15:49:30.965Z,504.3846
2023-04-20T15:50:32.728Z,502.4615
2023-04-20T15:51:35.325Z,501.6154
2023-04-20T15:52:37.997Z,503.2308
2023-04-20T15:53:40.593Z,503.8462
2023-04-20T15:54:43.185Z,501.0000
2023-04-20T15:55:45.776Z,504.0769
2023-04-20T15:56:48.414Z,505.2308
2023-04-20T15:57:51.002Z,507.3077
2023-04-20T15:58:53.641Z,506.0769
2023-04-20T15:59:56.246Z,504.0769
2023-04-20T16:00:58.895Z,503.3077
2023-04-20T16:02:01.563Z,507.1538
2023-04-20T16:03:04.210Z,503.5385
2023-04-20T16:04:06.943Z,505.0769
2023-04-20T16:05:09.730Z,505.4615
2023-04-20T16:06:11.909Z,506.4615
2023-04-20T16:07:14.557Z,507.7692
2023-04-20T16:08:17.161Z,509.1538
2023-04-20T16:09:20.797Z,510.0000
2023-04-20T16:10:22.395Z,509.8462
2023-04-20T16:11:25.010Z,512.8461
2023-04-20T16:12:27.615Z,512.7692
2023-04-20T16:13:30.245Z,514.6923
2023-04-20T16:14:32.871Z,511.2308
2023-04-20T16:15:35.517Z,510.9231
2023-04-20T16:16:38.080Z,513.1539
2023-04-20T16:17:40.749Z,513.5385
2023-04-20T16:18:43.313Z,514.5385
2023-04-20T16:19:45.952Z,511.6923
2023-04-20T16:20:48.532Z,512.1539
2023-04-20T16:21:51.167Z,509.8462
2023-04-20T16:22:53.839Z,505.6923
2023-04-20T16:23:56.391Z,509.5385
2023-04-20T16:24:58.977Z,513.5385
2023-04-20T16:26:01.636Z,512.6923
2023-04-20T16:27:04.214Z,511.2308
2023-04-20T16:28:06.857Z,511.5385
2023-04-20T16:29:09.440Z,509.3077
2023-04-20T16:30:12.076Z,509.4615
2023-04-20T16:31:14.698Z,510.0769
2023-04-20T16:32:17.573Z,515.0000
2023-04-20T16:33:19.885Z,514.3077
2023-04-20T16:34:22.519Z,512.6923
2023-04-20T16:35:25.115Z,513.9231
2023-04-20T16:36:27.751Z,511.4615
2023-04-20T17:42:15.295Z,516.3571
2023-04-20T17:43:17.920Z,512.0769
2023-04-20T17:44:20.735Z,511.2308
2023-04-20T17:45:23.153Z,511.9231
2023-04-20T17:46:25.776Z,509.8462
2023-04-20T17:47:28.430Z,511.6154
2023-04-20T17:48:30.967Z,513.3846
2023-04-20T17:49:33.618Z,513.3077
2023-04-20T17:50:36.220Z,512.5385
2023-04-20T17:51:38.845Z,505.5385
2023-04-20T17:52:41.448Z,509.6923
2023-04-20T17:53:44.316Z,509.7692
2023-04-20T17:54:46.718Z,509.8462
2023-04-20T17:55:49.329Z,508.5385
2023-04-20T17:56:51.914Z,508.0000
2023-04-20T17:57:54.558Z,507.0769
2023-04-20T17:58:57.159Z,506.3846
2023-04-20T17:59:59.796Z,507.3846
2023-04-20T18:01:02.415Z,506.9231
2023-04-20T18:02:05.189Z,506.3077
2023-04-20T18:03:07.816Z,503.7692
2023-04-20T18:04:10.991Z,506.2308
2023-04-20T18:05:12.855Z,508.0000
2023-04-20T18:06:15.501Z,510.5385
2023-04-20T18:07:18.126Z,514.9231
2023-04-20T18:08:20.738Z,516.0000
2023-04-20T18:09:23.325Z,514.2308
2023-04-20T18:10:25.966Z,511.6154
